Station Historical Data
Daily Summary for August 18, 2012 Units:  English    Metric   Both
« Previous Day
Next Day »
Daily Weekly Monthly Yearly Custom
  High: Low: Average:
Temperature: 78.8 °F 67.9 °F 72.5 °F
Dew Point: 68.5 °F 62.9 °F 66.3 °F
Humidity: 93% 60% 82%
Wind Speed: 7.0mph 0.0mph 1.6mph
Wind Gust: 10.0mph - -
Wind- - SSW
Pressure: 29.92 in 29.81 in -
Precipitation: 0.03 in    
Historical Graphs
 
 
Tabular Data for August 18, 2012
Time Temperature Dew Point Pressure Wind Wind Speed Wind Gust Humidity Rainfall Rate (Hourly) Conditions
00:00 70.4 °F 68.3 °F 29.92 in WNW 1.0 mph 1.0 mph 93% 0.00 in
00:06 70.5 °F 68.4 °F 29.92 in Calm   1.0 mph 93% 0.00 in
00:11 70.4 °F 68.3 °F 29.92 in West 1.0 mph 1.0 mph 93% 0.00 in
00:16 70.4 °F 68.3 °F 29.92 in Calm   1.0 mph 93% 0.00 in
00:21 70.4 °F 68.3 °F 29.92 in West 1.0 mph 1.0 mph 93% 0.00 in
00:26 70.4 °F 68.3 °F 29.92 in Calm   1.0 mph 93% 0.00 in
00:31 70.4 °F 68.3 °F 29.92 in West 1.0 mph 1.0 mph 93% 0.00 in
00:36 70.4 °F 68.3 °F 29.92 in Calm   1.0 mph 93% 0.00 in
00:41 70.3 °F 68.2 °F 29.92 in West 1.0 mph 1.0 mph 93% 0.00 in
00:46 70.4 °F 68.3 °F 29.92 in Calm     93% 0.00 in
00:51 70.3 °F 68.2 °F 29.92 in Calm     93% 0.00 in
00:56 70.3 °F 68.2 °F 29.92 in Calm     93% 0.00 in
01:01 70.3 °F 68.2 °F 29.91 in Calm     93% 0.00 in
01:06 70.3 °F 68.2 °F 29.91 in Calm     93% 0.00 in
01:11 70.2 °F 68.1 °F 29.91 in Calm     93% 0.00 in
01:16 70.2 °F 68.1 °F 29.91 in Calm     93% 0.00 in
01:21 70.2 °F 68.1 °F 29.91 in Calm     93% 0.00 in
01:26 70.2 °F 68.1 °F 29.91 in Calm     93% 0.00 in
01:31 70.1 °F 68.0 °F 29.91 in Calm     93% 0.00 in
01:36 70.1 °F 67.7 °F 29.91 in NNW 1.0 mph 2.0 mph 92% 0.00 in
01:41 70.1 °F 68.0 °F 29.90 in NNW 2.0 mph 3.0 mph 93% 0.00 in
01:46 70.0 °F 67.9 °F 29.90 in North 2.0 mph 3.0 mph 93% 0.00 in
01:51 69.9 °F 67.8 °F 29.90 in North 2.0 mph 2.0 mph 93% 0.00 in
01:56 69.8 °F 67.7 °F 29.90 in NNW 2.0 mph 3.0 mph 93% 0.00 in
02:01 69.8 °F 67.7 °F 29.90 in NNW 1.0 mph 3.0 mph 93% 0.00 in
02:06 69.7 °F 67.6 °F 29.90 in NNW 2.0 mph 3.0 mph 93% 0.00 in
02:11 69.6 °F 67.5 °F 29.90 in North 2.0 mph 3.0 mph 93% 0.00 in
02:16 69.6 °F 67.5 °F 29.89 in NNW 2.0 mph 2.0 mph 93% 0.00 in
02:21 69.6 °F 67.5 °F 29.89 in NNW 2.0 mph 2.0 mph 93% 0.00 in
02:26 69.6 °F 67.5 °F 29.89 in NNW 3.0 mph 3.0 mph 93% 0.00 in
02:31 69.7 °F 67.6 °F 29.90 in NNW 3.0 mph 3.0 mph 93% 0.00 in
02:36 69.7 °F 67.6 °F 29.89 in NW 2.0 mph 3.0 mph 93% 0.00 in
02:41 69.7 °F 67.6 °F 29.89 in North 3.0 mph 4.0 mph 93% 0.00 in
02:46 69.7 °F 67.6 °F 29.90 in NNW 2.0 mph 3.0 mph 93% 0.00 in
02:51 69.8 °F 67.7 °F 29.89 in NNE 2.0 mph 4.0 mph 93% 0.00 in
02:56 69.8 °F 67.7 °F 29.90 in North 2.0 mph 2.0 mph 93% 0.00 in
03:01 69.9 °F 67.8 °F 29.89 in Calm   2.0 mph 93% 0.00 in
03:06 69.9 °F 67.8 °F 29.89 in NE 1.0 mph 2.0 mph 93% 0.00 in
03:11 69.9 °F 67.8 °F 29.89 in NNE 1.0 mph 3.0 mph 93% 0.00 in
03:16 69.9 °F 67.8 °F 29.89 in ENE 1.0 mph 3.0 mph 93% 0.00 in
03:21 69.9 °F 67.8 °F 29.89 in North 2.0 mph 3.0 mph 93% 0.00 in
03:26 69.9 °F 67.8 °F 29.89 in Calm   2.0 mph 93% 0.00 in
03:31 69.9 °F 67.8 °F 29.90 in NNW 1.0 mph 2.0 mph 93% 0.00 in
03:36 69.9 °F 67.8 °F 29.90 in North 1.0 mph 2.0 mph 93% 0.00 in
03:41 69.8 °F 67.4 °F 29.89 in NNE 1.0 mph 2.0 mph 92% 0.00 in
03:46 69.8 °F 67.4 °F 29.89 in NW 2.0 mph 2.0 mph 92% 0.00 in
03:51 69.9 °F 67.8 °F 29.89 in NNE 1.0 mph 2.0 mph 93% 0.00 in
03:56 69.8 °F 67.4 °F 29.89 in North 2.0 mph 3.0 mph 92% 0.00 in
04:01 69.8 °F 67.7 °F 29.89 in North 1.0 mph 2.0 mph 93% 0.00 in
04:07 69.8 °F 67.4 °F 29.89 in North 2.0 mph 3.0 mph 92% 0.00 in
04:12 69.8 °F 67.4 °F 29.89 in NNW 3.0 mph 3.0 mph 92% 0.00 in
04:17 69.8 °F 67.4 °F 29.89 in NNW 2.0 mph 4.0 mph 92% 0.00 in
04:22 69.7 °F 67.6 °F 29.89 in North 2.0 mph 4.0 mph 93% 0.00 in
04:27 69.7 °F 67.3 °F 29.89 in North 2.0 mph 5.0 mph 92% 0.00 in
04:32 69.7 °F 67.6 °F 29.88 in North 3.0 mph 3.0 mph 93% 0.00 in
04:37 69.6 °F 67.5 °F 29.88 in NNE 2.0 mph 6.0 mph 93% 0.00 in
04:42 69.5 °F 67.4 °F 29.88 in NNW 1.0 mph 4.0 mph 93% 0.00 in
04:47 69.4 °F 67.3 °F 29.88 in NNW 3.0 mph 5.0 mph 93% 0.00 in
04:52 69.4 °F 67.3 °F 29.88 in Calm   4.0 mph 93% 0.00 in
04:57 69.3 °F 67.2 °F 29.88 in NE 2.0 mph 4.0 mph 93% 0.00 in
05:02 69.3 °F 67.2 °F 29.88 in NNE 1.0 mph 5.0 mph 93% 0.00 in
05:07 69.3 °F 67.2 °F 29.89 in NNE 1.0 mph 2.0 mph 93% 0.00 in
05:12 69.3 °F 67.2 °F 29.88 in NNW 1.0 mph 3.0 mph 93% 0.00 in
05:17 69.2 °F 67.1 °F 29.89 in NNW 2.0 mph 3.0 mph 93% 0.00 in
05:22 69.2 °F 67.1 °F 29.89 in NNW 2.0 mph 4.0 mph 93% 0.00 in
05:27 69.1 °F 67.0 °F 29.89 in North 2.0 mph 3.0 mph 93% 0.00 in
05:32 69.1 °F 67.0 °F 29.89 in North 1.0 mph 2.0 mph 93% 0.00 in
05:37 69.0 °F 66.9 °F 29.90 in NNE 1.0 mph 2.0 mph 93% 0.00 in
05:42 69.0 °F 66.9 °F 29.90 in NNW 2.0 mph 3.0 mph 93% 0.00 in
05:47 69.0 °F 66.9 °F 29.90 in North 3.0 mph 3.0 mph 93% 0.00 in
05:52 68.9 °F 66.8 °F 29.90 in North 2.0 mph 4.0 mph 93% 0.00 in
05:57 68.9 °F 66.8 °F 29.90 in NNW 1.0 mph 3.0 mph 93% 0.00 in
06:02 68.8 °F 66.7 °F 29.90 in North 1.0 mph 2.0 mph 93% 0.00 in
06:07 68.8 °F 66.7 °F 29.90 in NNW 2.0 mph 2.0 mph 93% 0.00 in
06:12 68.8 °F 66.7 °F 29.90 in NNE 1.0 mph 2.0 mph 93% 0.00 in
06:17 68.7 °F 66.6 °F 29.90 in North 1.0 mph 2.0 mph 93% 0.00 in
06:22 68.7 °F 66.6 °F 29.90 in Calm   2.0 mph 93% 0.00 in
06:27 68.7 °F 66.6 °F 29.90 in Calm   2.0 mph 93% 0.00 in
06:32 68.7 °F 66.6 °F 29.90 in Calm     93% 0.00 in
06:37 68.7 °F 66.6 °F 29.90 in North 1.0 mph 2.0 mph 93% 0.00 in
06:42 68.7 °F 66.6 °F 29.90 in North 1.0 mph 2.0 mph 93% 0.00 in
06:47 68.7 °F 66.6 °F 29.90 in North 3.0 mph 3.0 mph 93% 0.00 in
06:52 68.6 °F 66.5 °F 29.90 in North 1.0 mph 4.0 mph 93% 0.00 in
06:57 68.6 °F 66.5 °F 29.90 in NE 1.0 mph 3.0 mph 93% 0.00 in
07:02 68.5 °F 66.4 °F 29.90 in NNW 1.0 mph 3.0 mph 93% 0.00 in
07:07 68.5 °F 66.4 °F 29.90 in Calm   2.0 mph 93% 0.00 in
07:12 68.5 °F 66.4 °F 29.90 in NNW 2.0 mph 3.0 mph 93% 0.00 in
07:17 68.4 °F 66.3 °F 29.91 in Calm   4.0 mph 93% 0.00 in
07:22 68.4 °F 66.3 °F 29.91 in NNE 1.0 mph 2.0 mph 93% 0.00 in
07:27 68.4 °F 66.3 °F 29.91 in North 2.0 mph 2.0 mph 93% 0.00 in
07:32 68.4 °F 66.3 °F 29.91 in NE 1.0 mph 3.0 mph 93% 0.00 in
07:37 68.4 °F 66.3 °F 29.91 in NNE 1.0 mph 2.0 mph 93% 0.00 in
07:42 68.3 °F 66.2 °F 29.90 in NE 2.0 mph 3.0 mph 93% 0.00 in
07:47 68.3 °F 66.2 °F 29.90 in NE 1.0 mph 2.0 mph 93% 0.00 in
07:52 68.2 °F 66.1 °F 29.90 in NE 1.0 mph 2.0 mph 93% 0.00 in
07:57 68.1 °F 66.0 °F 29.90 in NE 1.0 mph 3.0 mph 93% 0.00 in
08:02 67.9 °F 65.8 °F 29.90 in North 1.0 mph 2.0 mph 93% 0.00 in
08:07 67.9 °F 65.8 °F 29.90 in NNE 1.0 mph 3.0 mph 93% 0.00 in
08:12 67.9 °F 65.8 °F 29.90 in NNE 1.0 mph 1.0 mph 93% 0.00 in
08:17 68.2 °F 66.1 °F 29.90 in North 1.0 mph 2.0 mph 93% 0.00 in
08:22 68.4 °F 66.3 °F 29.90 in NNW 1.0 mph 3.0 mph 93% 0.00 in
08:27 68.7 °F 66.6 °F 29.90 in NNE 2.0 mph 3.0 mph 93% 0.00 in
08:32 68.8 °F 66.7 °F 29.90 in ENE 2.0 mph 3.0 mph 93% 0.00 in
08:37 68.8 °F 66.4 °F 29.90 in NNE 2.0 mph 3.0 mph 92% 0.00 in
08:42 68.7 °F 66.3 °F 29.91 in NE 3.0 mph 5.0 mph 92% 0.00 in
08:47 68.9 °F 66.5 °F 29.91 in North 5.0 mph 5.0 mph 92% 0.00 in
08:52 69.2 °F 66.8 °F 29.92 in NNW 2.0 mph 4.0 mph 92% 0.00 in
08:57 69.4 °F 67.0 °F 29.92 in NE 2.0 mph 5.0 mph 92% 0.00 in
09:02 69.6 °F 67.2 °F 29.92 in North 3.0 mph 6.0 mph 92% 0.00 in
09:07 70.0 °F 67.6 °F 29.92 in NE 2.0 mph 5.0 mph 92% 0.00 in
09:13 70.1 °F 67.0 °F 29.92 in NE 3.0 mph 4.0 mph 90% 0.00 in
09:18 70.1 °F 66.7 °F 29.92 in NNE 3.0 mph 6.0 mph 89% 0.00 in
09:23 70.3 °F 66.6 °F 29.92 in North 2.0 mph 5.0 mph 88% 0.00 in
09:28 70.8 °F 67.1 °F 29.92 in North 3.0 mph 4.0 mph 88% 0.00 in
09:33 71.0 °F 66.6 °F 29.91 in ENE 3.0 mph 6.0 mph 86% 0.00 in
09:38 71.3 °F 65.9 °F 29.92 in NNE 5.0 mph 8.0 mph 83% 0.00 in
09:43 71.4 °F 66.3 °F 29.92 in NNW 2.0 mph 8.0 mph 84% 0.00 in
09:48 71.7 °F 66.6 °F 29.92 in NE 2.0 mph 5.0 mph 84% 0.00 in
09:53 71.8 °F 66.0 °F 29.92 in NNE 2.0 mph 7.0 mph 82% 0.00 in
09:58 72.0 °F 65.9 °F 29.92 in NE 5.0 mph 6.0 mph 81% 0.00 in
10:03 72.0 °F 66.2 °F 29.92 in NE 4.0 mph 5.0 mph 82% 0.00 in
10:08 72.2 °F 66.1 °F 29.92 in ESE 1.0 mph 5.0 mph 81% 0.00 in
10:13 72.4 °F 64.8 °F 29.92 in East 6.0 mph 7.0 mph 77% 0.00 in
10:18 72.5 °F 65.3 °F 29.92 in NE 3.0 mph 7.0 mph 78% 0.00 in
10:23 72.5 °F 64.9 °F 29.92 in North 2.0 mph 7.0 mph 77% 0.00 in
10:28 72.9 °F 65.3 °F 29.92 in NNW 3.0 mph 5.0 mph 77% 0.00 in
10:33 73.1 °F 63.9 °F 29.92 in North 4.0 mph 10.0 mph 73% 0.00 in
10:38 72.9 °F 64.1 °F 29.91 in NE 6.0 mph 8.0 mph 74% 0.00 in
10:43 73.0 °F 65.0 °F 29.91 in ENE 5.0 mph 7.0 mph 76% 0.00 in
10:48 73.4 °F 65.8 °F 29.92 in NE 6.0 mph 6.0 mph 77% 0.00 in
10:53 73.5 °F 64.3 °F 29.92 in NE 4.0 mph 6.0 mph 73% 0.00 in
10:58 73.6 °F 64.8 °F 29.92 in NNE 3.0 mph 6.0 mph 74% 0.00 in
11:03 73.9 °F 64.7 °F 29.92 in ENE 3.0 mph 4.0 mph 73% 0.00 in
11:08 74.1 °F 63.7 °F 29.92 in NE 2.0 mph 5.0 mph 70% 0.00 in
11:13 74.5 °F 64.9 °F 29.92 in NE 5.0 mph 7.0 mph 72% 0.00 in
11:18 74.6 °F 64.6 °F 29.92 in NNW 3.0 mph 6.0 mph 71% 0.00 in
11:23 74.7 °F 65.1 °F 29.92 in North 1.0 mph 4.0 mph 72% 0.00 in
11:28 74.9 °F 64.9 °F 29.92 in NNE 4.0 mph 6.0 mph 71% 0.00 in
11:33 75.1 °F 64.2 °F 29.92 in NNE 3.0 mph 6.0 mph 69% 0.00 in
11:38 75.2 °F 63.9 °F 29.92 in NE 4.0 mph 8.0 mph 68% 0.00 in
11:43 75.1 °F 63.8 °F 29.92 in East 4.0 mph 5.0 mph 68% 0.00 in
11:48 75.2 °F 65.2 °F 29.92 in NNW 1.0 mph 5.0 mph 71% 0.00 in
11:53 75.3 °F 63.6 °F 29.92 in NE 2.0 mph 5.0 mph 67% 0.00 in
11:58 75.5 °F 64.6 °F 29.91 in NNW 3.0 mph 4.0 mph 69% 0.00 in
12:03 75.9 °F 64.6 °F 29.91 in NNE 2.0 mph 6.0 mph 68% 0.00 in
12:08 76.4 °F 65.5 °F 29.91 in ESE 4.0 mph 4.0 mph 69% 0.00 in
12:13 76.4 °F 65.1 °F 29.91 in NNE 2.0 mph 3.0 mph 68% 0.00 in
12:18 76.5 °F 65.6 °F 29.91 in East 5.0 mph 5.0 mph 69% 0.00 in
12:23 76.4 °F 64.6 °F 29.91 in NE 2.0 mph 6.0 mph 67% 0.00 in
12:28 76.3 °F 64.6 °F 29.91 in SE 4.0 mph 5.0 mph 67% 0.35 in
12:33 76.2 °F 64.4 °F 29.91 in ESE 3.0 mph 5.0 mph 67% 0.09 in
12:38 76.6 °F 64.8 °F 29.91 in South 2.0 mph 3.0 mph 67% 0.05 in
12:43 77.4 °F 66.0 °F 29.91 in Calm   2.0 mph 68% 0.04 in
12:48 77.3 °F 64.2 °F 29.91 in NW 3.0 mph 5.0 mph 64% 0.00 in
12:54 77.2 °F 65.0 °F 29.91 in NW 2.0 mph 2.0 mph 66% 0.00 in
12:59 76.8 °F 65.0 °F 29.91 in WNW 1.0 mph 4.0 mph 67% 0.00 in
13:04 76.8 °F 65.4 °F 29.90 in SW 2.0 mph 3.0 mph 68% 0.00 in
13:08 77.2 °F 65.0 °F 29.90 in Calm   4.0 mph 66% 0.00 in
13:14 77.2 °F 66.2 °F 29.90 in West 4.0 mph 5.0 mph 69% 0.00 in
13:19 76.5 °F 64.7 °F 29.90 in WNW 2.0 mph 3.0 mph 67% 0.00 in
13:24 76.8 °F 66.3 °F 29.90 in NW 2.0 mph 2.0 mph 70% 0.00 in
13:29 77.6 °F 67.9 °F 29.89 in WSW 2.0 mph 2.0 mph 72% 0.00 in
13:34 77.9 °F 66.1 °F 29.89 in Calm   3.0 mph 67% 0.00 in
13:39 77.7 °F 65.4 °F 29.89 in NE 2.0 mph 3.0 mph 66% 0.00 in
13:44 77.8 °F 66.4 °F 29.89 in NE 4.0 mph 5.0 mph 68% 0.00 in
13:49 77.4 °F 64.7 °F 29.89 in East 3.0 mph 5.0 mph 65% 0.00 in
13:54 77.2 °F 65.8 °F 29.88 in Calm   3.0 mph 68% 0.00 in
13:59 77.7 °F 65.4 °F 29.88 in NNW 3.0 mph 3.0 mph 66% 0.00 in
14:04 77.4 °F 65.6 °F 29.88 in NW 2.0 mph 5.0 mph 67% 0.00 in
14:09 77.4 °F 66.4 °F 29.87 in North 3.0 mph 3.0 mph 69% 0.00 in
14:14 77.6 °F 66.2 °F 29.87 in West 3.0 mph 3.0 mph 68% 0.00 in
14:19 77.5 °F 66.5 °F 29.87 in NNW 4.0 mph 4.0 mph 69% 0.00 in
14:24 77.4 °F 65.2 °F 29.87 in ENE 2.0 mph 3.0 mph 66% 0.00 in
14:29 77.5 °F 65.3 °F 29.87 in NNW 4.0 mph 4.0 mph 66% 0.00 in
14:34 77.4 °F 64.3 °F 29.87 in NW 2.0 mph 5.0 mph 64% 0.00 in
14:39 77.3 °F 64.2 °F 29.86 in NW 4.0 mph 6.0 mph 64% 0.00 in
14:44 77.6 °F 64.9 °F 29.87 in North 1.0 mph 4.0 mph 65% 0.00 in
14:49 77.6 °F 64.9 °F 29.87 in NNW 4.0 mph 6.0 mph 65% 0.00 in
14:54 77.8 °F 64.7 °F 29.86 in NNW 3.0 mph 4.0 mph 64% 0.00 in
14:59 77.7 °F 63.7 °F 29.86 in North 1.0 mph 6.0 mph 62% 0.00 in
15:04 77.9 °F 64.3 °F 29.86 in NW 3.0 mph 5.0 mph 63% 0.00 in
15:09 77.9 °F 65.2 °F 29.86 in NE 3.0 mph 5.0 mph 65% 0.00 in
15:14 78.0 °F 63.9 °F 29.86 in NNE 1.0 mph 4.0 mph 62% 0.00 in
15:19 78.0 °F 64.4 °F 29.85 in NNW 7.0 mph 7.0 mph 63% 0.00 in
15:24 77.8 °F 65.1 °F 29.85 in NNW 4.0 mph 6.0 mph 65% 0.00 in
15:29 77.7 °F 64.6 °F 29.85 in WNW 3.0 mph 5.0 mph 64% 0.00 in
15:34 77.5 °F 64.4 °F 29.85 in WNW 2.0 mph 4.0 mph 64% 0.00 in
15:39 77.3 °F 65.1 °F 29.85 in NW 4.0 mph 6.0 mph 66% 0.00 in
15:44 77.2 °F 64.5 °F 29.85 in Calm   3.0 mph 65% 0.00 in
15:49 77.5 °F 64.8 °F 29.86 in West 1.0 mph 1.0 mph 65% 0.00 in
15:54 77.4 °F 65.2 °F 29.85 in WNW 2.0 mph 3.0 mph 66% 0.00 in
15:59 77.4 °F 65.2 °F 29.85 in NW 2.0 mph 3.0 mph 66% 0.00 in
16:04 77.2 °F 64.1 °F 29.85 in NNW 2.0 mph 4.0 mph 64% 0.00 in
16:09 77.3 °F 65.1 °F 29.85 in WNW 2.0 mph 3.0 mph 66% 0.00 in
16:14 77.2 °F 65.4 °F 29.85 in WNW 2.0 mph 3.0 mph 67% 0.00 in
16:19 77.1 °F 65.3 °F 29.85 in WNW 3.0 mph 4.0 mph 67% 0.00 in
16:24 77.0 °F 63.9 °F 29.85 in WSW 2.0 mph 4.0 mph 64% 0.00 in
16:29 77.0 °F 63.5 °F 29.84 in WNW 1.0 mph 4.0 mph 63% 0.00 in
16:34 77.2 °F 64.5 °F 29.84 in NNW 1.0 mph 2.0 mph 65% 0.00 in
16:39 77.5 °F 63.9 °F 29.84 in WNW 3.0 mph 3.0 mph 63% 0.00 in
16:44 77.6 °F 64.9 °F 29.84 in WNW 3.0 mph 3.0 mph 65% 0.00 in
16:49 77.4 °F 63.8 °F 29.84 in WNW 2.0 mph 4.0 mph 63% 0.00 in
16:54 77.5 °F 63.9 °F 29.84 in SSW 1.0 mph 4.0 mph 63% 0.00 in
16:59 77.7 °F 65.4 °F 29.84 in Calm   2.0 mph 66% 0.00 in
17:04 77.8 °F 65.5 °F 29.83 in NW 5.0 mph 5.0 mph 66% 0.00 in
17:09 77.3 °F 65.1 °F 29.83 in NW 3.0 mph 5.0 mph 66% 0.00 in
17:14 77.3 °F 63.7 °F 29.84 in NW 1.0 mph 4.0 mph 63% 0.00 in
17:19 77.9 °F 64.8 °F 29.84 in West 1.0 mph 1.0 mph 64% 0.00 in
17:24 78.4 °F 65.2 °F 29.83 in NW 1.0 mph 3.0 mph 64% 0.00 in
17:29 78.1 °F 65.8 °F 29.83 in North 3.0 mph 3.0 mph 66% 0.00 in
17:34 78.5 °F 65.3 °F 29.83 in NNW 3.0 mph 3.0 mph 64% 0.00 in
17:39 78.8 °F 64.7 °F 29.83 in NE 2.0 mph 5.0 mph 62% 0.00 in
17:45 78.7 °F 64.6 °F 29.84 in NE 2.0 mph 6.0 mph 62% 0.00 in
17:50 78.3 °F 64.7 °F 29.83 in NW 2.0 mph 6.0 mph 63% 0.00 in
17:55 77.9 °F 62.9 °F 29.83 in NE 2.0 mph 5.0 mph 60% 0.00 in
18:00 77.7 °F 63.7 °F 29.82 in North 4.0 mph 5.0 mph 62% 0.00 in
18:05 77.4 °F 63.8 °F 29.83 in WNW 3.0 mph 3.0 mph 63% 0.00 in
18:10 77.1 °F 65.7 °F 29.83 in NNW 2.0 mph 3.0 mph 68% 0.00 in
18:15 76.8 °F 64.6 °F 29.83 in NNW 1.0 mph 3.0 mph 66% 0.00 in
18:20 76.7 °F 64.1 °F 29.82 in NNW 1.0 mph 2.0 mph 65% 0.00 in
18:25 76.6 °F 65.3 °F 29.82 in Calm   1.0 mph 68% 0.00 in
18:30 76.5 °F 65.2 °F 29.82 in Calm   2.0 mph 68% 0.00 in
18:35 76.4 °F 65.1 °F 29.82 in Calm   1.0 mph 68% 0.00 in
18:40 76.3 °F 65.4 °F 29.82 in West 1.0 mph 1.0 mph 69% 0.00 in
18:45 76.3 °F 65.4 °F 29.81 in Calm     69% 0.00 in
18:50 76.2 °F 64.9 °F 29.82 in Calm   1.0 mph 68% 0.00 in
18:55 76.1 °F 64.8 °F 29.82 in Calm     68% 0.00 in
19:00 76.1 °F 65.2 °F 29.82 in West 1.0 mph 1.0 mph 69% 0.00 in
19:05 75.9 °F 65.4 °F 29.83 in WSW 2.0 mph 2.0 mph 70% 0.00 in
19:10 75.8 °F 65.3 °F 29.82 in Calm   1.0 mph 70% 0.00 in
19:15 75.8 °F 66.9 °F 29.82 in SE 1.0 mph 1.0 mph 74% 0.00 in
19:20 75.4 °F 65.3 °F 29.82 in Calm     71% 0.00 in
19:25 75.3 °F 65.7 °F 29.82 in SE 1.0 mph 1.0 mph 72% 0.00 in
19:30 75.1 °F 66.2 °F 29.82 in Calm     74% 0.00 in
19:35 75.0 °F 66.9 °F 29.82 in Calm     76% 0.00 in
19:40 74.9 °F 67.6 °F 29.83 in Calm     78% 0.00 in
19:45 74.6 °F 68.0 °F 29.83 in Calm     80% 0.00 in
19:50 74.4 °F 67.8 °F 29.83 in Calm     80% 0.00 in
19:55 74.2 °F 67.6 °F 29.84 in Calm     80% 0.00 in
20:00 74.1 °F 67.9 °F 29.83 in Calm     81% 0.00 in
20:05 74.1 °F 68.3 °F 29.83 in Calm     82% 0.00 in
20:10 74.0 °F 68.2 °F 29.83 in Calm     82% 0.00 in
20:15 73.9 °F 68.1 °F 29.83 in Calm     82% 0.00 in
20:20 73.6 °F 68.5 °F 29.83 in SSE 1.0 mph 1.0 mph 84% 0.00 in
20:25 73.1 °F 68.0 °F 29.83 in Calm   1.0 mph 84% 0.00 in
20:30 72.6 °F 67.8 °F 29.83 in Calm     85% 0.00 in
20:35 72.3 °F 67.9 °F 29.84 in Calm     86% 0.00 in
20:40 72.1 °F 68.3 °F 29.84 in Calm   1.0 mph 88% 0.00 in
20:45 71.8 °F 68.1 °F 29.84 in SSW 1.0 mph 1.0 mph 88% 0.00 in
20:50 71.6 °F 67.9 °F 29.84 in Calm     88% 0.00 in
20:55 71.4 °F 68.0 °F 29.84 in Calm     89% 0.00 in
21:00 71.2 °F 68.1 °F 29.84 in Calm   1.0 mph 90% 0.00 in
21:05 70.9 °F 67.8 °F 29.84 in Calm   1.0 mph 90% 0.00 in
21:10 70.7 °F 67.9 °F 29.84 in Calm     91% 0.00 in
21:15 70.5 °F 67.8 °F 29.84 in Calm     91% 0.00 in
21:20 70.4 °F 67.7 °F 29.84 in Calm     91% 0.00 in
21:25 70.3 °F 67.6 °F 29.84 in Calm   1.0 mph 91% 0.00 in
21:30 70.2 °F 67.4 °F 29.84 in SSW 1.0 mph 1.0 mph 91% 0.00 in
21:35 70.3 °F 67.6 °F 29.84 in Calm   1.0 mph 91% 0.00 in
21:40 70.3 °F 67.6 °F 29.84 in Calm     91% 0.00 in
21:45 70.3 °F 67.6 °F 29.84 in Calm     91% 0.00 in
21:50 70.2 °F 67.4 °F 29.84 in Calm     91% 0.00 in
21:55 70.1 °F 67.0 °F 29.84 in Calm     90% 0.00 in
22:00 70.2 °F 67.4 °F 29.85 in Calm   1.0 mph 91% 0.00 in
22:05 70.1 °F 67.4 °F 29.85 in Calm     91% 0.00 in
22:11 70.0 °F 67.3 °F 29.85 in SSW 1.0 mph 1.0 mph 91% 0.00 in
22:15 70.0 °F 67.3 °F 29.85 in North 2.0 mph 2.0 mph 91% 0.00 in
22:21 69.9 °F 67.5 °F 29.85 in North 1.0 mph 1.0 mph 92% 0.00 in
22:26 69.7 °F 67.3 °F 29.85 in Calm   1.0 mph 92% 0.00 in
22:31 69.6 °F 67.2 °F 29.85 in NNW 1.0 mph 2.0 mph 92% 0.00 in
22:36 69.3 °F 66.9 °F 29.85 in NNW 1.0 mph 2.0 mph 92% 0.00 in
22:41 69.3 °F 66.9 °F 29.85 in NNW 1.0 mph 1.0 mph 92% 0.00 in
22:46 69.2 °F 67.1 °F 29.85 in Calm   1.0 mph 93% 0.00 in
22:51 69.2 °F 66.8 °F 29.85 in Calm     92% 0.00 in
22:56 69.2 °F 66.8 °F 29.85 in Calm     92% 0.00 in
23:01 69.1 °F 66.7 °F 29.85 in Calm     92% 0.00 in
23:06 69.1 °F 66.7 °F 29.85 in Calm     92% 0.00 in
23:11 69.1 °F 66.7 °F 29.85 in Calm     92% 0.00 in
23:16 69.1 °F 66.7 °F 29.84 in Calm     92% 0.00 in
23:21 69.0 °F 66.6 °F 29.84 in Calm     92% 0.00 in
23:26 69.1 °F 66.7 °F 29.84 in Calm     92% 0.00 in
23:31 69.2 °F 66.8 °F 29.84 in NNW 1.0 mph 1.0 mph 92% 0.00 in
23:36 69.2 °F 66.5 °F 29.84 in NNW 1.0 mph 1.0 mph 91% 0.00 in
23:41 69.1 °F 66.7 °F 29.84 in NNW 1.0 mph 1.0 mph 92% 0.00 in
23:46 68.8 °F 66.4 °F 29.84 in NNW 1.0 mph 1.0 mph 92% 0.00 in
23:51 68.6 °F 66.2 °F 29.84 in Calm   2.0 mph 92% 0.00 in
23:56 68.6 °F 66.2 °F 29.83 in Calm   1.0 mph 92% 0.00 in
Compliments of Weather Underground